CW0104 Weather Reports


Display with metric or nautical units.
time (UTC)temp
F
wind
direction
speed
MPH
gust
MPH
rain 1hr
in
rain 24hr
in
rain mn
in
humidity
%
barometer
mb
20190117131833 16 42 1.0 6.0 0.00 0.00 0.00 47 1026.5
20190117131332 16 355 2.0 11.0 0.00 0.00 0.00 47 1026.5
20190117130832 16 12 2.0 11.0 0.00 0.00 0.00 47 1026.3
20190117130332 16 344 1.0 5.0 0.00 0.00 0.00 48 1026.3
20190117125846 16 333 1.0 6.0 0.00 0.00 0.00 49 1026.3
20190117125313 16 325 1.0 6.0 0.00 0.00 0.00 49 1026.0
20190117124814 16 5 0.0 2.0 0.00 0.00 0.00 49 1026.0
20190117124311 17 5 0.0 2.0 0.00 0.00 0.00 49 1026.1
20190117123812 17 5 1.0 4.0 0.00 0.00 0.00 49 1025.8
20190117123310 17 9 1.0 5.0 0.00 0.00 0.00 49 1025.8
20190117122806 17 16 2.0 6.0 0.00 0.00 0.00 49 1025.8
20190117122304 17 355 2.0 6.0 0.00 0.00 0.00 48 1025.9
20190117121805 17 0 1.0 5.0 0.00 0.00 0.00 48 1025.9
20190117121304 17 5 2.0 8.0 0.00 0.00 0.00 48 1025.9
20190117120752 17 339 1.0 8.0 0.00 0.00 0.00 48 1025.7
20190117120247 17 355 1.0 9.0 0.00 0.00 0.00 49 1025.7
20190117115749 17 17 1.0 9.0 0.00 0.00 0.00 49 1025.7
20190117115234 18 333 1.0 8.0 0.00 0.00 0.00 48 1025.5
20190117114716 18 36 1.0 5.0 0.00 0.00 0.00 49 1025.5
20190117114205 18 281 1.0 8.0 0.00 0.00 0.00 48 1025.5
20190117113702 18 333 2.0 8.0 0.00 0.00 0.00 48 1025.3
20190117113204 18 284 2.0 9.0 0.00 0.00 0.00 48 1025.3
20190117112702 19 327 1.0 9.0 0.00 0.00 0.00 48 1025.3
20190117112157 19 348 2.0 6.0 0.00 0.00 0.00 48 1025.0
20190117111657 19 338 2.0 6.0 0.00 0.00 0.00 47 1025.0
20190117111158 19 326 1.0 6.0 0.00 0.00 0.00 48 1025.0
20190117110658 19 17 2.0 11.0 0.00 0.00 0.00 48 1024.7
20190117110212 19 348 2.0 11.0 0.00 0.00 0.00 47 1024.7
20190117105644 20 5 1.0 8.0 0.00 0.00 0.00 47 1024.7
20190117105140 20 0 1.0 8.0 0.00 0.00 0.00 47 1024.5
20190117104626 20 344 1.0 6.0 0.00 0.00 0.00 46 1024.5
20190117104126 20 342 1.0 6.0 0.00 0.00 0.00 45 1024.5
20190117103622 20 22 0.0 4.0 0.00 0.00 0.00 44 1024.5
20190117103111 20 22 2.0 8.0 0.00 0.00 0.00 43 1024.5
20190117102612 20 10 2.0 8.0 0.00 0.00 0.00 42 1024.5
20190117102112 21 11 1.0 4.0 0.00 0.00 0.00 40 1024.5
20190117101609 21 28 1.0 6.0 0.00 0.00 0.00 40 1024.5
20190117101104 21 33 1.0 6.0 0.00 0.00 0.00 40 1024.2
20190117100600 21 9 1.0 6.0 0.00 0.00 0.00 40 1024.2
20190117095557 22 22 4.0 10.0 0.00 0.00 0.00 39 1024.0
20190117095037 22 333 4.0 11.0 0.00 0.00 0.00 39 1024.0
20190117094538 22 45 2.0 11.0 0.00 0.00 0.00 39 1024.0
20190117094035 22 355 2.0 10.0 0.00 0.00 0.00 39 1023.9
20190117093535 22 348 2.0 9.0 0.00 0.00 0.00 38 1023.9
20190117093025 22 305 2.0 10.0 0.00 0.00 0.00 38 1023.9
20190117092524 23 351 2.0 13.0 0.00 0.00 0.00 39 1023.5
20190117092024 23 0 4.0 13.0 0.00 0.00 0.00 39 1023.5
20190117091527 23 13 4.0 11.0 0.00 0.00 0.00 39 1023.6
20190117091017 23 9 2.0 11.0 0.00 0.00 0.00 40 1023.5
20190117090514 23 350 2.0 10.0 0.00 0.00 0.00 39 1023.5
20190117090011 24 355 2.0 8.0 0.00 0.00 0.00 40 1023.5
20190117085509 24 342 2.0 8.0 0.00 0.00 0.00 40 1023.2
20190117085006 24 0 2.0 8.0 0.00 0.00 0.00 40 1023.2
20190117084002 24 0 2.0 9.0 0.00 0.00 0.00 40 1023.0
20190117083003 25 355 2.0 8.0 0.00 0.00 0.00 40 1023.0
20190117082504 25 9 4.0 11.0 0.00 0.00 0.00 40 1022.8
20190117082003 25 23 2.0 11.0 0.00 0.00 0.00 40 1022.8
20190117081504 26 11 1.0 5.0 0.00 0.00 0.00 40 1022.8
20190117081000 26 13 1.0 5.0 0.00 0.00 0.00 42 1022.5
20190117080458 26 21 1.0 8.0 0.00 0.00 0.00 42 1022.5
20190117075959 26 22 0.0 8.0 0.00 0.00 0.00 42 1022.5
20190117075459 26 19 0.0 4.0 0.00 0.00 0.00 41 1022.2
20190117074948 26 19 0.0 4.0 0.00 0.00 0.00 41 1022.2
20190117074439 26 0 1.0 5.0 0.00 0.00 0.00 41 1022.2
20190117073921 26 0 2.0 8.0 0.00 0.00 0.00 40 1022.0
20190117073414 27 355 1.0 8.0 0.00 0.00 0.00 40 1022.0
20190117072914 27 313 2.0 11.0 0.00 0.00 0.00 41 1022.0
20190117072415 27 330 2.0 11.0 0.00 0.00 0.00 41 1021.6
20190117071919 27 296 1.0 9.0 0.00 0.00 0.00 43 1021.6
20190117071411 27 355 1.0 5.0 0.00 0.00 0.00 44 1021.6
20190117070911 27 5 1.0 6.0 0.00 0.00 0.00 44 1021.0
20190117070411 27 331 2.0 9.0 0.00 0.00 0.00 44 1021.0
20190117065911 28 332 1.0 9.0 0.00 0.00 0.00 44 1021.0
20190117065410 28 254 1.0 6.0 0.00 0.00 0.00 44 1020.9
20190117064911 28 327 2.0 8.0 0.00 0.00 0.00 44 1020.9
20190117064405 28 287 2.0 8.0 0.00 0.00 0.00 44 1020.9
20190117063903 28 338 3.0 9.0 0.00 0.00 0.00 45 1020.4
20190117063401 28 311 5.0 13.0 0.00 0.00 0.00 46 1020.4
20190117062857 28 331 4.0 13.0 0.00 0.00 0.00 47 1020.4
20190117062356 28 17 2.0 13.0 0.00 0.00 0.00 49 1020.2
20190117061858 28 0 1.0 13.0 0.00 0.00 0.00 52 1020.2
20190117061341 29 13 0.0 3.0 0.00 0.00 0.00 53 1020.3
20190117060840 29 19 0.0 5.0 0.00 0.00 0.00 52 1019.9
20190117060303 29 19 1.0 6.0 0.00 0.00 0.00 51 1019.9
20190117055755 29 5 0.0 6.0 0.00 0.00 0.00 51 1019.9
20190117055248 29 323 0.0 4.0 0.00 0.00 0.00 50 1019.8
20190117054746 29 322 0.0 2.0 0.00 0.00 0.00 50 1019.8
20190117054246 29 321 0.0 2.0 0.00 0.00 0.00 50 1019.8
20190117053748 29 310 0.0 2.0 0.00 0.00 0.00 50 1019.3
20190117053244 29 311 1.0 4.0 0.00 0.00 0.00 50 1019.3
20190117052721 29 292 1.0 6.0 0.00 0.00 0.00 50 1019.3
20190117052222 30 255 1.0 6.0 0.00 0.00 0.00 49 1019.0
20190117051721 30 281 1.0 6.0 0.00 0.00 0.00 49 1019.0
20190117051223 30 258 1.0 5.0 0.00 0.00 0.00 49 1019.0
20190117050718 30 334 0.0 2.0 0.00 0.00 0.00 49 1018.9
20190117050216 30 335 0.0 6.0 0.00 0.00 0.00 49 1018.9
20190117045703 30 335 1.0 6.0 0.00 0.00 0.00 49 1018.9
20190117045204 30 228 1.0 6.0 0.00 0.00 0.00 48 1018.5
20190117044703 30 287 1.0 6.0 0.00 0.00 0.00 48 1018.5
20190117044151 31 267 1.0 5.0 0.00 0.00 0.00 48 1018.5
20190117043650 31 268 0.0 5.0 0.00 0.00 0.00 48 1018.4
20190117043152 31 306 0.0 4.0 0.00 0.00 0.00 48 1018.4
20190117042652 31 306 1.0 5.0 0.00 0.00 0.00 48 1018.4
20190117042136 31 250 2.0 6.0 0.00 0.00 0.00 48 1018.4
20190117041619 31 302 1.0 6.0 0.00 0.00 0.00 49 1018.4
20190117041119 31 15 0.0 5.0 0.00 0.00 0.00 49 1018.4
20190117040620 32 254 0.0 4.0 0.00 0.00 0.00 48 1017.9
20190117040120 32 251 0.0 4.0 0.00 0.00 0.00 48 1017.9
20190117035617 32 251 1.0 5.0 0.00 0.00 0.00 48 1017.9
20190117035109 32 244 1.0 5.0 0.00 0.00 0.00 48 1017.9
20190117034608 32 296 0.0 4.0 0.00 0.00 0.00 48 1017.9
20190117034101 32 267 0.0 8.0 0.00 0.00 0.00 47 1017.4
20190117033557 32 267 1.0 8.0 0.00 0.00 0.00 47 1017.4
20190117033038 33 323 1.0 6.0 0.00 0.00 0.00 47 1017.4
20190117032534 33 266 1.0 8.0 0.00 0.00 0.00 47 1017.4
20190117031525 33 261 1.0 9.0 0.00 0.00 0.00 49 1017.4
20190117031012 33 5 1.0 9.0 0.00 0.00 0.00 50 1016.9
20190117030508 33 355 1.0 6.0 0.00 0.00 0.00 51 1016.9
20190117030007 33 247 0.0 2.0 0.00 0.00 0.00 51 1016.9
20190117025505 33 247 0.0 2.0 0.00 0.00 0.00 51 1016.5
20190117025002 33 247 1.0 5.0 0.00 0.00 0.00 51 1016.5
20190117023953 34 273 0.0 4.0 0.00 0.00 0.00 51 1016.1
20190117023450 34 272 0.0 1.0 0.00 0.00 0.00 50 1016.1
20190117022951 34 272 1.0 5.0 0.00 0.00 0.00 50 1016.1
20190117022442 34 254 1.0 5.0 0.00 0.00 0.00 50 1015.9
20190117021939 34 281 1.0 8.0 0.00 0.00 0.00 50 1015.9
20190117021438 34 266 2.0 8.0 0.00 0.00 0.00 50 1015.9
20190117020937 34 286 2.0 11.0 0.00 0.00 0.00 50 1015.5
20190117020437 34 281 2.0 11.0 0.00 0.00 0.00 50 1015.5
20190117015933 34 265 2.0 9.0 0.00 0.00 0.00 51 1015.5
20190117015430 34 248 1.0 9.0 0.00 0.00 0.00 51 1015.3
20190117014928 34 201 1.0 6.0 0.00 0.00 0.00 53 1015.4
20190117014428 34 242 2.0 8.0 0.00 0.00 0.00 54 1015.4
20190117013924 34 269 1.0 8.0 0.00 0.00 0.00 55 1015.0
20190117013425 34 233 0.0 4.0 0.00 0.00 0.00 56 1015.0
20190117012925 34 240 0.0 2.0 0.00 0.00 0.00 56 1015.0
20190117012423 35 240 0.0 2.0 0.00 0.00 0.00 56 1015.0
20190117011923 35 240 0.0 2.0 0.00 0.00 0.00 55 1015.0
20190117011401 35 240 0.0 2.0 0.00 0.00 0.00 55 1015.0
20190117010855 35 240 0.0 4.0 0.00 0.00 0.00 55 1014.9
20190117010349 35 241 0.0 4.0 0.00 0.00 0.00 55 1014.9
20190117005831 35 248 0.0 0.0 0.00 0.00 0.00 54 1014.9
20190117005319 35 248 1.0 5.0 0.00 0.00 0.00 54 1014.9
20190117004814 35 247 1.0 5.0 0.00 0.00 0.00 54 1014.9
20190117004247 35 231 1.0 6.0 0.00 0.00 0.00 54 1014.9
20190117003751 35 267 2.0 6.0 0.00 0.00 0.00 54 1014.5
20190117003240 35 232 1.0 6.0 0.00 0.00 0.00 54 1014.5
20190117002736 35 261 1.0 5.0 0.00 0.00 0.00 54 1014.5
20190117002234 35 215 2.0 6.0 0.00 0.00 0.00 54 1014.4
20190117001724 35 244 1.0 6.0 0.00 0.00 0.00 54 1014.4
20190117001218 35 227 1.0 6.0 0.00 0.00 0.00 54 1014.4
20190117000717 35 226 1.0 6.0 0.00 0.00 0.00 54 1014.4
20190117000220 35 225 1.0 5.0 0.00 0.00 0.00 54 1014.4
20190116235716 35 230 1.0 5.0 0.00 0.00 0.00 54 1014.4
20190116235209 35 225 1.0 5.0 0.00 0.00 0.00 54 1014.2
20190116234710 35 246 1.0 5.0 0.00 0.00 0.00 54 1014.2
20190116234211 35 246 1.0 5.0 0.00 0.00 0.00 54 1014.2
20190116233700 35 210 1.0 5.0 0.00 0.00 0.00 54 1014.1
20190116233147 35 210 0.0 4.0 0.00 0.00 0.00 54 1014.1
20190116232652 35 243 1.0 5.0 0.00 0.00 0.00 55 1014.1
20190116232141 35 243 1.0 5.0 0.00 0.00 0.00 54 1013.8
20190116231642 35 211 0.0 5.0 0.00 0.00 0.00 55 1013.8
20190116231142 35 223 1.0 5.0 0.00 0.00 0.00 55 1013.8
20190116230632 35 190 1.0 4.0 0.00 0.00 0.00 55 1013.5
20190116230134 35 190 1.0 5.0 0.00 0.00 0.00 55 1013.5
20190116225639 35 188 1.0 6.0 0.00 0.00 0.00 55 1013.5
20190116225124 35 223 1.0 6.0 0.00 0.00 0.00 55 1013.3
20190116224624 34 246 1.0 5.0 0.00 0.00 0.00 56 1013.3
20190116224125 34 249 1.0 5.0 0.00 0.00 0.00 56 1013.3
20190116223621 34 271 1.0 5.0 0.00 0.00 0.00 56 1013.3
20190116223121 34 246 1.0 6.0 0.00 0.00 0.00 56 1013.3
20190116222624 34 254 1.0 6.0 0.00 0.00 0.00 57 1013.3
20190116222114 34 199 1.0 5.0 0.00 0.00 0.00 57 1013.2
20190116221610 34 198 0.0 2.0 0.00 0.00 0.00 57 1013.2
20190116221111 34 198 0.0 2.0 0.00 0.00 0.00 57 1012.9
20190116220608 34 198 0.0 2.0 0.00 0.00 0.00 57 1012.9
20190116220056 34 198 0.0 1.0 0.00 0.00 0.00 57 1012.9
20190116215556 34 198 0.0 2.0 0.00 0.00 0.00 57 1012.7
20190116215056 35 198 0.0 4.0 0.00 0.00 0.00 57 1012.7
20190116214558 35 198 0.0 4.0 0.00 0.00 0.00 56 1012.7
20190116214056 35 198 0.0 2.0 0.00 0.00 0.00 56 1012.5
20190116213552 35 198 0.0 5.0 0.00 0.00 0.00 56 1012.5
20190116213046 35 198 1.0 5.0 0.00 0.00 0.00 56 1012.5
20190116212541 35 229 0.0 5.0 0.00 0.00 0.00 56 1012.4
20190116212036 35 288 0.0 5.0 0.00 0.00 0.00 56 1012.4
20190116211531 35 288 0.0 5.0 0.00 0.00 0.00 56 1012.4
20190116211028 35 286 0.0 9.0 0.00 0.00 0.00 56 1012.4
20190116210530 35 325 1.0 9.0 0.00 0.00 0.00 56 1012.4
20190116210015 35 288 4.0 8.0 0.00 0.00 0.00 56 1012.4
20190116205516 35 207 2.0 8.0 0.00 0.00 0.00 56 1012.3
20190116205012 35 234 1.0 4.0 0.00 0.00 0.00 57 1012.3
20190116204509 35 254 1.0 5.0 0.00 0.00 0.00 57 1012.3
20190116204010 35 280 1.0 6.0 0.00 0.00 0.00 57 1012.2
20190116203506 36 228 1.0 8.0 0.00 0.00 0.00 57 1012.2
20190116203008 36 254 2.0 8.0 0.00 0.00 0.00 56 1012.2
20190116202505 36 250 2.0 8.0 0.00 0.00 0.00 56 1012.3
20190116202006 36 227 3.0 8.0 0.00 0.00 0.00 56 1012.3
20190116201500 35 248 2.0 13.0 0.00 0.00 0.00 57 1012.3
20190116200958 35 229 1.0 13.0 0.00 0.00 0.00 57 1012.3
20190116200506 35 250 2.0 10.0 0.00 0.00 0.00 57 1012.3
20190116195957 35 239 2.0 10.0 0.00 0.00 0.00 57 1012.3
20190116195458 35 258 2.0 9.0 0.00 0.00 0.00 57 1012.3
20190116195000 35 290 2.0 9.0 0.00 0.00 0.00 57 1012.3
20190116194458 35 259 4.0 13.0 0.00 0.00 0.00 57 1012.3
20190116193942 35 308 4.0 13.0 0.00 0.00 0.00 57 1012.2
20190116193442 35 269 2.0 8.0 0.00 0.00 0.00 57 1012.2
20190116192929 35 223 1.0 6.0 0.00 0.00 0.00 57 1012.2
20190116192431 35 267 2.0 8.0 0.00 0.00 0.00 57 1011.9
20190116191925 35 273 2.0 8.0 0.00 0.00 0.00 57 1011.9
20190116191422 35 328 1.0 6.0 0.00 0.00 0.00 57 1011.9
20190116190919 35 275 2.0 8.0 0.00 0.00 0.00 58 1011.9
20190116185919 35 254 2.0 11.0 0.00 0.00 0.00 58 1011.9
20190116185410 35 284 1.0 6.0 0.00 0.00 0.00 58 1012.0
20190116184909 35 261 2.0 8.0 0.00 0.00 0.00 58 1012.0
20190116184406 35 213 1.0 8.0 0.00 0.00 0.00 58 1012.0
20190116183909 35 255 2.0 8.0 0.00 0.00 0.00 58 1011.8
20190116183404 35 268 4.0 8.0 0.00 0.00 0.00 59 1011.8
20190116182857 35 253 4.0 9.0 0.00 0.00 0.00 58 1011.8
20190116182401 35 240 4.0 9.0 0.00 0.00 0.00 58 1011.8
20190116181852 35 284 2.0 9.0 0.00 0.00 0.00 58 1011.8
20190116181354 35 225 2.0 8.0 0.00 0.00 0.00 58 1011.8
20190116180852 35 225 2.0 6.0 0.00 0.00 0.00 58 1011.8
20190116180343 35 246 2.0 10.0 0.00 0.00 0.00 58 1011.8
20190116175842 35 289 2.0 10.0 0.00 0.00 0.00 58 1011.8
20190116175341 35 277 4.0 10.0 0.00 0.00 0.00 58 1011.8
20190116174842 35 256 4.0 10.0 0.00 0.00 0.00 58 1011.8
20190116174343 35 285 4.0 9.0 0.00 0.00 0.00 58 1011.8
20190116173842 35 267 4.0 8.0 0.00 0.00 0.00 58 1011.9
20190116173341 35 259 4.0 9.0 0.00 0.00 0.00 58 1011.9
20190116172839 35 224 4.0 9.0 0.00 0.00 0.00 58 1011.9
20190116172339 35 218 4.0 9.0 0.00 0.00 0.00 59 1011.9
20190116171839 35 257 2.0 9.0 0.00 0.00 0.00 60 1011.9
20190116171338 35 215 1.0 8.0 0.00 0.00 0.00 60 1011.9
20190116170839 34 261 1.0 6.0 0.00 0.00 0.00 61 1012.3
20190116170331 34 254 2.0 6.0 0.00 0.00 0.00 61 1012.3
20190116165826 33 268 2.0 6.0 0.00 0.00 0.00 61 1012.3
20190116165331 33 226 2.0 9.0 0.00 0.00 0.00 61 1012.8
20190116164823 33 262 2.0 9.0 0.00 0.00 0.00 62 1012.8
20190116164321 33 232 1.0 8.0 0.00 0.00 0.00 62 1012.8
20190116163822 33 253 2.0 8.0 0.00 0.00 0.00 62 1012.9
20190116163321 33 227 2.0 8.0 0.00 0.00 0.00 62 1012.9
20190116162817 33 269 2.0 8.0 0.00 0.00 0.00 62 1012.9
20190116162310 33 234 2.0 8.0 0.00 0.00 0.00 63 1013.3
20190116161809 33 216 1.0 6.0 0.00 0.00 0.00 63 1013.3
20190116161309 33 242 1.0 5.0 0.00 0.00 0.00 63 1013.3
20190116160747 33 247 1.0 5.0 0.00 0.00 0.00 64 1013.4
20190116160252 33 185 1.0 8.0 0.00 0.00 0.00 64 1013.4
20190116155739 33 211 2.0 13.0 0.00 0.00 0.00 64 1013.4
20190116155238 33 261 5.0 13.0 0.00 0.00 0.00 64 1013.4
20190116154730 33 232 5.0 13.0 0.00 0.00 0.00 64 1013.4
20190116154231 33 243 4.0 13.0 0.00 0.00 0.00 64 1013.4
20190116153731 33 249 2.0 11.0 0.00 0.00 0.00 65 1013.7
20190116153230 33 262 4.0 14.0 0.00 0.00 0.00 66 1013.7
20190116152733 32 236 5.0 14.0 0.00 0.00 0.00 66 1013.7
20190116152231 32 227 5.0 13.0 0.00 0.00 0.00 68 1013.7
20190116151725 31 278 5.0 11.0 0.00 0.00 0.00 70 1013.7
20190116151226 31 225 4.0 11.0 0.00 0.00 0.00 71 1013.7
20190116150727 31 257 2.0 11.0 0.00 0.00 0.00 71 1013.8
20190116150226 30 222 4.0 13.0 0.00 0.00 0.00 72 1013.8
20190116145727 30 267 5.0 13.0 0.00 0.00 0.00 73 1013.8
20190116145228 30 256 5.0 15.0 0.00 0.00 0.00 75 1013.7
20190116144724 29 216 4.0 15.0 0.00 0.00 0.00 76 1013.7
20190116144224 29 197 4.0 9.0 0.00 0.00 0.00 77 1013.7
20190116143711 29 242 4.0 9.0 0.00 0.00 0.00 78 1013.7
20190116143206 28 226 2.0 8.0 0.00 0.00 0.00 80 1013.7
20190116142705 28 229 3.0 14.0 0.00 0.00 0.00 81 1013.7
20190116142207 28 244 4.0 14.0 0.00 0.00 0.00 81 1013.6
20190116141701 27 221 4.0 10.0 0.00 0.00 0.00 82 1013.6
20190116141154 27 221 4.0 10.0 0.00 0.00 0.00 83 1013.6
20190116140655 26 222 2.0 11.0 0.00 0.00 0.00 83 1013.8
20190116140148 26 273 1.0 11.0 0.00 0.00 0.00 84 1013.7
20190116135641 25 230 1.0 8.0 0.00 0.00 0.00 84 1013.7
20190116135146 24 236 1.0 8.0 0.00 0.00 0.00 84 1013.7
20190116134636 24 213 1.0 5.0 0.00 0.00 0.00 83 1013.7
20190116134135 23 226 0.0 5.0 0.00 0.00 0.00 83 1013.7
20190116133634 23 229 0.0 4.0 0.00 0.00 0.00 82 1013.7
20190116133136 22 245 0.0 4.0 0.00 0.00 0.00 82 1013.7
20190116132636 22 249 0.0 1.0 0.00 0.00 0.00 81 1013.7
20190116132114 21 355 0.0 1.0 0.00 0.00 0.00 81 1013.6